createdAt,value
2018-01-25T00:01:55.474Z,19.61
2018-01-25T00:04:22.829Z,19.59
2018-01-25T00:06:51.506Z,19.54
2018-01-25T00:09:18.958Z,19.48
2018-01-25T00:11:46.381Z,19.52
2018-01-25T00:14:13.791Z,19.53
2018-01-25T00:16:43.133Z,19.52
2018-01-25T00:19:10.518Z,19.55
2018-01-25T00:21:37.898Z,19.49
2018-01-25T00:24:05.306Z,19.47
2018-01-25T00:26:33.759Z,19.45
2018-01-25T00:29:01.356Z,19.50
2018-01-25T00:31:28.806Z,19.49
2018-01-25T00:33:56.282Z,19.50
2018-01-25T00:36:23.647Z,19.48
2018-01-25T00:38:51.060Z,19.46
2018-01-25T00:41:18.723Z,19.42
2018-01-25T00:43:46.167Z,19.38
2018-01-25T00:46:13.528Z,19.44
2018-01-25T00:48:40.892Z,19.43
2018-01-25T00:51:08.310Z,19.40
2018-01-25T00:53:36.115Z,19.38
2018-01-25T00:56:03.473Z,19.38
2018-01-25T00:58:31.057Z,19.38
2018-01-25T01:00:58.472Z,19.34
2018-01-25T01:03:25.838Z,19.34
2018-01-25T01:05:53.260Z,19.36
2018-01-25T01:08:20.785Z,19.23
2018-01-25T01:10:48.154Z,19.31
2018-01-25T01:13:15.645Z,19.28
2018-01-25T01:15:43.205Z,19.32
2018-01-25T01:18:10.545Z,19.29
2018-01-25T01:20:37.978Z,19.31
2018-01-25T01:23:05.365Z,19.32
2018-01-25T01:25:32.780Z,19.25
2018-01-25T01:28:00.144Z,19.28
2018-01-25T01:30:27.510Z,19.25
2018-01-25T01:32:54.948Z,19.26
2018-01-25T01:35:22.308Z,19.24
2018-01-25T01:37:50.217Z,19.26
2018-01-25T01:40:17.853Z,19.23
2018-01-25T01:42:45.262Z,19.22
2018-01-25T01:45:12.755Z,19.18
2018-01-25T01:47:40.232Z,19.18
2018-01-25T01:50:07.710Z,19.16
2018-01-25T01:52:35.172Z,19.18
2018-01-25T01:55:02.918Z,19.19
2018-01-25T01:57:30.377Z,19.16
2018-01-25T01:59:58.112Z,19.12
2018-01-25T02:02:25.537Z,19.11
2018-01-25T02:04:52.924Z,19.07
2018-01-25T02:07:20.562Z,18.96
2018-01-25T02:09:48.525Z,18.85
2018-01-25T02:12:15.886Z,18.83
2018-01-25T02:14:43.288Z,18.78
2018-01-25T02:17:10.739Z,18.69
2018-01-25T02:19:38.141Z,18.79
2018-01-25T02:22:06.373Z,18.76
2018-01-25T02:24:33.908Z,18.83
2018-01-25T02:27:01.290Z,18.82
2018-01-25T02:29:28.682Z,18.84
2018-01-25T02:31:56.043Z,18.88
2018-01-25T02:34:23.377Z,18.86
2018-01-25T02:36:50.885Z,18.93
2018-01-25T02:39:18.494Z,18.89
2018-01-25T02:41:45.995Z,18.90
2018-01-25T02:44:13.451Z,19.00
2018-01-25T02:46:41.070Z,18.94
2018-01-25T02:49:08.768Z,18.87
2018-01-25T02:51:36.243Z,19.01
2018-01-25T02:54:03.714Z,18.97
2018-01-25T02:56:31.063Z,18.98
2018-01-25T02:58:58.468Z,19.01
2018-01-25T03:01:25.854Z,19.13
2018-01-25T03:03:53.766Z,19.10
2018-01-25T03:06:21.206Z,19.06
2018-01-25T03:08:49.063Z,19.05
2018-01-25T03:11:16.473Z,19.12
2018-01-25T03:13:43.891Z,19.15
2018-01-25T03:16:11.281Z,19.07
2018-01-25T03:18:38.717Z,19.03
2018-01-25T03:21:07.157Z,19.15
2018-01-25T03:23:34.617Z,19.14
2018-01-25T03:26:02.023Z,19.11
2018-01-25T03:28:29.378Z,19.11
2018-01-25T03:30:56.864Z,19.17
2018-01-25T03:33:24.756Z,19.20
2018-01-25T03:35:52.410Z,19.17
2018-01-25T03:38:20.727Z,19.18
2018-01-25T03:40:48.191Z,19.18
2018-01-25T03:43:15.742Z,19.20
2018-01-25T03:45:43.173Z,19.23
2018-01-25T03:48:10.611Z,19.21
2018-01-25T03:50:38.182Z,19.23
2018-01-25T03:53:05.587Z,19.20
2018-01-25T03:55:33.890Z,19.29
2018-01-25T03:58:01.284Z,19.16
2018-01-25T04:00:29.017Z,19.25
2018-01-25T04:02:56.558Z,19.23
2018-01-25T04:05:24.186Z,19.14
2018-01-25T04:07:51.709Z,19.21
2018-01-25T04:10:19.249Z,19.26
2018-01-25T04:12:47.024Z,19.30
2018-01-25T04:15:14.514Z,19.35
2018-01-25T04:17:42.173Z,19.44
2018-01-25T04:20:09.864Z,19.46
2018-01-25T04:22:37.260Z,19.49
2018-01-25T04:25:04.906Z,19.51
2018-01-25T04:27:32.335Z,19.58
2018-01-25T04:29:59.704Z,19.64
2018-01-25T04:32:27.290Z,19.67
2018-01-25T04:34:54.649Z,19.65
2018-01-25T04:37:22.312Z,19.63
2018-01-25T04:42:23.285Z,19.69
2018-01-25T04:44:50.714Z,19.70
2018-01-25T04:47:18.150Z,19.80
2018-01-25T04:49:45.666Z,19.80
2018-01-25T04:52:13.067Z,19.84
2018-01-25T04:54:40.544Z,19.82
2018-01-25T04:57:07.924Z,19.85
2018-01-25T04:59:35.352Z,19.83
2018-01-25T05:02:02.843Z,19.92
2018-01-25T05:04:30.340Z,19.87
2018-01-25T05:06:57.838Z,19.93
2018-01-25T05:09:25.417Z,19.90
2018-01-25T05:11:52.836Z,19.88
2018-01-25T05:14:20.244Z,19.99
2018-01-25T05:16:47.670Z,19.96
2018-01-25T05:19:15.135Z,20.01
2018-01-25T05:21:42.546Z,19.99
2018-01-25T05:24:10.007Z,20.00
2018-01-25T05:26:37.425Z,20.11
2018-01-25T05:29:04.854Z,20.21
2018-01-25T05:31:32.320Z,20.17
2018-01-25T05:33:59.732Z,20.19
2018-01-25T05:36:27.125Z,20.03
2018-01-25T05:38:54.756Z,20.08
2018-01-25T05:41:22.172Z,20.14
2018-01-25T05:43:50.906Z,20.11
2018-01-25T05:46:18.494Z,20.14
2018-01-25T05:48:46.080Z,20.14
2018-01-25T05:51:13.771Z,20.11
2018-01-25T05:53:42.343Z,20.20
2018-01-25T05:56:09.778Z,20.14
2018-01-25T05:58:37.235Z,20.15
2018-01-25T06:01:06.142Z,20.27
2018-01-25T06:03:33.531Z,20.25
2018-01-25T06:06:00.966Z,20.24
2018-01-25T06:08:28.547Z,20.23
2018-01-25T06:10:55.957Z,20.25
2018-01-25T06:13:23.347Z,20.32
2018-01-25T06:15:50.816Z,20.28
2018-01-25T06:18:18.198Z,20.37
2018-01-25T06:20:45.575Z,20.41
2018-01-25T06:23:13.158Z,20.45
2018-01-25T06:25:40.594Z,20.49
2018-01-25T06:28:08.003Z,20.43
2018-01-25T06:30:35.664Z,20.43
2018-01-25T06:33:03.238Z,20.69
2018-01-25T06:35:30.647Z,20.61
2018-01-25T06:37:58.157Z,20.75
2018-01-25T06:40:25.626Z,20.76
2018-01-25T06:42:53.058Z,20.74
2018-01-25T06:45:20.467Z,20.88
2018-01-25T06:47:47.880Z,20.86
2018-01-25T06:50:15.303Z,20.88
2018-01-25T06:52:42.883Z,20.99
2018-01-25T06:55:10.370Z,21.14
2018-01-25T06:57:37.851Z,21.18
2018-01-25T07:00:05.288Z,21.24
2018-01-25T07:02:32.797Z,21.06
2018-01-25T07:05:00.199Z,21.20
2018-01-25T07:07:27.723Z,21.36
2018-01-25T07:09:55.184Z,21.33
2018-01-25T07:12:22.652Z,21.39
2018-01-25T07:14:50.262Z,21.48
2018-01-25T07:17:17.699Z,21.39
2018-01-25T07:19:46.244Z,21.43
2018-01-25T07:22:13.746Z,21.41
2018-01-25T07:24:41.266Z,21.46
2018-01-25T07:27:08.723Z,21.48
2018-01-25T07:29:36.529Z,21.54
2018-01-25T07:32:03.994Z,21.49
2018-01-25T07:34:31.464Z,21.69
2018-01-25T07:36:58.946Z,21.72
2018-01-25T07:39:26.382Z,21.79
2018-01-25T07:41:53.840Z,21.78
2018-01-25T07:44:21.322Z,21.78
2018-01-25T07:46:51.232Z,21.76
2018-01-25T07:49:19.317Z,21.81
2018-01-25T07:51:46.968Z,21.75
2018-01-25T07:54:14.369Z,21.89
2018-01-25T07:56:41.836Z,21.85
2018-01-25T07:59:10.317Z,22.03
2018-01-25T08:01:39.079Z,21.88
2018-01-25T08:04:07.861Z,21.90
2018-01-25T08:06:38.466Z,21.94
2018-01-25T08:09:06.737Z,21.94
2018-01-25T08:11:35.167Z,21.89
2018-01-25T08:14:05.878Z,21.96
2018-01-25T08:16:36.273Z,22.02
2018-01-25T08:19:04.922Z,22.12
2018-01-25T08:21:37.861Z,22.10
2018-01-25T08:24:05.984Z,22.02
2018-01-25T08:26:33.495Z,22.16
2018-01-25T08:29:02.029Z,22.11
2018-01-25T08:31:29.582Z,22.22
2018-01-25T08:34:00.906Z,22.14
2018-01-25T08:41:40.370Z,22.26
2018-01-25T08:44:09.820Z,22.18
2018-01-25T08:46:38.135Z,22.17
2018-01-25T08:49:08.935Z,22.25
2018-01-25T08:51:39.102Z,22.40
2018-01-25T08:54:07.567Z,22.48
2018-01-25T08:56:35.066Z,22.49
2018-01-25T08:59:06.732Z,22.36
2018-01-25T09:01:43.749Z,22.37
2018-01-25T09:04:11.516Z,22.33
2018-01-25T09:06:45.272Z,22.40
2018-01-25T09:09:12.703Z,22.43
2018-01-25T09:11:43.111Z,22.55
2018-01-25T09:16:51.050Z,22.54
2018-01-25T09:19:22.101Z,22.46
2018-01-25T09:21:50.674Z,22.48
2018-01-25T09:24:20.051Z,22.57
2018-01-25T09:27:00.243Z,22.53
2018-01-25T09:29:28.107Z,22.48
2018-01-25T09:31:55.987Z,22.60
2018-01-25T09:34:25.114Z,22.63
2018-01-25T09:36:53.254Z,22.48
2018-01-25T09:39:24.650Z,22.57
2018-01-25T09:41:55.031Z,22.64
2018-01-25T09:44:22.697Z,22.66
2018-01-25T09:46:51.527Z,22.62
2018-01-25T09:49:35.014Z,22.58
2018-01-25T09:52:06.122Z,22.64
2018-01-25T09:54:35.860Z,22.50
2018-01-25T09:57:04.095Z,22.62
2018-01-25T09:59:36.889Z,22.67
2018-01-25T10:02:07.738Z,22.65
2018-01-25T10:04:35.397Z,22.65
2018-01-25T10:07:03.064Z,22.97
2018-01-25T10:09:32.113Z,22.96
2018-01-25T10:12:00.006Z,22.85
2018-01-25T10:14:27.997Z,22.70
2018-01-25T10:16:57.176Z,22.87
2018-01-25T10:22:06.519Z,23.00
2018-01-25T10:24:40.227Z,22.89
2018-01-25T10:27:07.807Z,22.94
2018-01-25T10:29:35.610Z,23.00
2018-01-25T10:32:03.526Z,23.06
2018-01-25T10:34:31.104Z,22.92
2018-01-25T10:36:59.185Z,22.97
2018-01-25T10:39:28.033Z,22.75
2018-01-25T10:41:58.412Z,22.83
2018-01-25T10:44:27.215Z,22.75
2018-01-25T10:49:29.763Z,22.79
2018-01-25T10:52:00.189Z,22.90
2018-01-25T10:54:31.330Z,22.83
2018-01-25T10:56:58.807Z,22.85
2018-01-25T10:59:27.606Z,22.88
2018-01-25T11:02:01.696Z,22.85
2018-01-25T11:04:30.819Z,23.03
2018-01-25T11:06:58.776Z,22.94
2018-01-25T11:09:31.689Z,23.02
2018-01-25T11:11:59.519Z,23.00
2018-01-25T11:14:35.793Z,22.89
2018-01-25T11:17:04.146Z,22.79
2018-01-25T11:19:33.578Z,23.11
2018-01-25T11:22:08.260Z,22.99
2018-01-25T11:24:46.697Z,23.10
2018-01-25T11:27:14.444Z,23.16
2018-01-25T11:29:41.953Z,23.14
2018-01-25T11:32:09.494Z,23.06
2018-01-25T11:34:40.044Z,23.28
2018-01-25T11:37:07.624Z,23.24
2018-01-25T11:39:35.460Z,23.06
2018-01-25T11:42:02.970Z,23.18
2018-01-25T11:44:30.871Z,23.23
2018-01-25T11:46:58.370Z,23.35
2018-01-25T11:49:26.186Z,23.31
2018-01-25T11:51:55.381Z,23.12
2018-01-25T11:54:22.843Z,23.31
2018-01-25T11:56:50.439Z,23.18
2018-01-25T11:59:18.199Z,23.19
2018-01-25T12:01:45.820Z,23.16
2018-01-25T12:04:13.506Z,23.15
2018-01-25T12:06:46.268Z,23.24
2018-01-25T12:09:13.766Z,23.41
2018-01-25T12:11:41.234Z,23.35
2018-01-25T12:14:08.725Z,23.44
2018-01-25T12:16:36.121Z,23.33
2018-01-25T12:19:03.757Z,23.37
2018-01-25T12:21:31.386Z,23.40
2018-01-25T12:23:59.817Z,23.43
2018-01-25T12:26:27.782Z,23.44
2018-01-25T12:28:55.295Z,23.36
2018-01-25T12:31:23.035Z,23.43
2018-01-25T12:33:50.561Z,23.34
2018-01-25T12:36:18.074Z,23.36
2018-01-25T12:38:45.618Z,23.41
2018-01-25T12:41:13.059Z,23.47
2018-01-25T12:43:41.820Z,23.47
2018-01-25T12:46:13.792Z,23.51
2018-01-25T12:48:41.567Z,23.51
2018-01-25T12:51:09.622Z,23.44
2018-01-25T12:53:37.018Z,23.27
2018-01-25T12:56:05.168Z,23.41
2018-01-25T12:58:33.224Z,23.57
2018-01-25T13:01:01.060Z,23.61
2018-01-25T13:03:28.557Z,23.49
2018-01-25T13:05:56.458Z,23.40
2018-01-25T13:08:24.235Z,23.56
2018-01-25T13:10:52.823Z,23.46
2018-01-25T13:13:20.359Z,23.45
2018-01-25T13:15:48.585Z,23.39
2018-01-25T13:18:16.248Z,23.41
2018-01-25T13:20:43.728Z,23.50
2018-01-25T13:23:11.340Z,23.42
2018-01-25T13:25:39.111Z,23.61
2018-01-25T13:28:06.904Z,23.39
2018-01-25T13:30:34.409Z,23.43
2018-01-25T13:33:01.979Z,23.49
2018-01-25T13:35:29.598Z,23.39
2018-01-25T13:37:57.629Z,23.44
2018-01-25T13:40:25.032Z,23.39
2018-01-25T13:42:52.572Z,23.44
2018-01-25T13:45:19.982Z,23.50
2018-01-25T13:47:48.845Z,23.34
2018-01-25T13:50:16.371Z,23.44
2018-01-25T13:52:43.842Z,23.34
2018-01-25T13:55:11.294Z,23.58
2018-01-25T13:57:38.756Z,23.62
2018-01-25T14:00:06.172Z,23.36
2018-01-25T14:02:33.639Z,23.47
2018-01-25T14:05:01.046Z,23.50
2018-01-25T14:07:28.601Z,23.59
2018-01-25T14:09:57.972Z,23.60
2018-01-25T14:12:25.611Z,23.68
2018-01-25T14:14:53.001Z,23.64
2018-01-25T14:17:20.617Z,23.56
2018-01-25T14:19:48.229Z,23.63
2018-01-25T14:22:15.870Z,23.49
2018-01-25T14:24:43.320Z,23.48
2018-01-25T14:27:10.746Z,23.52
2018-01-25T14:29:38.114Z,23.44
2018-01-25T14:32:05.610Z,23.42
2018-01-25T14:34:33.034Z,23.40
2018-01-25T14:37:00.655Z,23.38
2018-01-25T14:39:28.091Z,23.21
2018-01-25T14:41:55.494Z,23.39
2018-01-25T14:44:22.933Z,23.38
2018-01-25T14:46:50.857Z,23.34
2018-01-25T14:49:18.384Z,23.36
2018-01-25T14:51:45.817Z,23.37
2018-01-25T14:54:13.283Z,23.23
2018-01-25T14:56:40.767Z,23.33
2018-01-25T14:59:08.195Z,23.15
2018-01-25T15:01:35.719Z,23.22
2018-01-25T15:04:03.236Z,23.18
2018-01-25T15:06:30.699Z,23.23
2018-01-25T15:08:58.255Z,23.24
2018-01-25T15:11:25.705Z,23.18
2018-01-25T15:13:53.134Z,23.16
2018-01-25T15:16:21.988Z,23.20
2018-01-25T15:18:49.489Z,23.10
2018-01-25T15:21:16.977Z,23.11
2018-01-25T15:23:44.504Z,23.12
2018-01-25T15:26:11.978Z,23.10
2018-01-25T15:28:39.606Z,23.10
2018-01-25T15:31:07.081Z,23.14
2018-01-25T15:33:34.618Z,23.08
2018-01-25T15:36:02.076Z,23.09
2018-01-25T15:38:29.504Z,22.98
2018-01-25T15:40:57.322Z,23.04
2018-01-25T15:43:24.838Z,23.08
2018-01-25T15:45:52.276Z,23.03
2018-01-25T15:48:19.669Z,22.97
2018-01-25T15:50:47.097Z,22.90
2018-01-25T15:53:14.546Z,22.93
2018-01-25T15:55:41.951Z,23.00
2018-01-25T15:58:09.679Z,22.96
2018-01-25T16:00:38.032Z,22.90
2018-01-25T16:03:07.262Z,22.92
2018-01-25T16:05:35.070Z,22.83
2018-01-25T16:08:08.394Z,22.83
2018-01-25T16:10:36.451Z,22.89
2018-01-25T16:13:04.214Z,22.84
2018-01-25T16:15:35.501Z,22.89
2018-01-25T16:18:03.586Z,22.85
2018-01-25T16:20:31.620Z,22.65
2018-01-25T16:23:01.630Z,22.67
2018-01-25T16:25:29.557Z,22.70
2018-01-25T16:27:57.172Z,22.62
2018-01-25T16:30:24.579Z,22.64
2018-01-25T16:32:52.947Z,22.68
2018-01-25T16:35:21.114Z,22.67
2018-01-25T16:37:49.013Z,22.68
2018-01-25T16:40:17.363Z,22.65
2018-01-25T16:42:44.796Z,22.64
2018-01-25T16:45:12.362Z,22.64
2018-01-25T16:47:40.322Z,22.53
2018-01-25T16:50:08.354Z,22.52
2018-01-25T16:52:35.882Z,22.48
2018-01-25T16:55:03.339Z,22.51
2018-01-25T16:57:30.965Z,22.51
2018-01-25T16:59:58.996Z,22.39
2018-01-25T17:02:26.781Z,22.43
2018-01-25T17:04:54.319Z,22.45
2018-01-25T17:07:21.883Z,22.45
2018-01-25T17:09:49.385Z,22.41
2018-01-25T17:12:18.617Z,22.43
2018-01-25T17:14:46.288Z,22.32
2018-01-25T17:17:13.702Z,22.35
2018-01-25T17:19:41.291Z,22.37
2018-01-25T17:22:08.771Z,22.33
2018-01-25T17:24:36.187Z,22.31
2018-01-25T17:27:03.614Z,22.28
2018-01-25T17:29:31.015Z,22.21
2018-01-25T17:31:58.440Z,22.22
2018-01-25T17:34:26.403Z,22.23
2018-01-25T17:36:53.864Z,22.22
2018-01-25T17:39:21.291Z,22.19
2018-01-25T17:41:48.715Z,22.22
2018-01-25T17:44:16.222Z,22.16
2018-01-25T17:46:43.596Z,22.17
2018-01-25T17:49:11.033Z,22.08
2018-01-25T17:51:38.451Z,22.10
2018-01-25T17:54:05.830Z,22.08
2018-01-25T17:56:33.260Z,22.09
2018-01-25T17:59:00.751Z,22.10
2018-01-25T18:01:28.199Z,22.04
2018-01-25T18:03:55.599Z,22.05
2018-01-25T18:06:23.012Z,21.97
2018-01-25T18:08:50.392Z,21.87
2018-01-25T18:11:17.879Z,21.91
2018-01-25T18:13:45.289Z,21.90
2018-01-25T18:16:12.722Z,21.95
2018-01-25T18:18:40.156Z,21.94
2018-01-25T18:21:07.554Z,21.87
2018-01-25T18:23:34.990Z,21.88
2018-01-25T18:26:02.426Z,21.87
2018-01-25T18:28:29.846Z,21.91
2018-01-25T18:30:57.263Z,22.01
2018-01-25T18:33:24.896Z,21.82
2018-01-25T18:35:52.273Z,21.85
2018-01-25T18:38:19.910Z,21.83
2018-01-25T18:40:47.466Z,21.82
2018-01-25T18:43:14.881Z,21.81
2018-01-25T18:45:49.467Z,21.85
2018-01-25T18:48:17.164Z,21.78
2018-01-25T18:50:44.616Z,21.75
2018-01-25T18:53:11.987Z,21.76
2018-01-25T18:55:39.876Z,21.72
2018-01-25T18:58:07.389Z,21.71
2018-01-25T19:00:34.839Z,21.66
2018-01-25T19:03:02.337Z,21.71
2018-01-25T19:05:29.944Z,21.68
2018-01-25T19:07:57.345Z,21.66
2018-01-25T19:10:24.815Z,21.64
2018-01-25T19:12:52.203Z,21.62
2018-01-25T19:15:19.655Z,21.59
2018-01-25T19:17:47.220Z,21.59
2018-01-25T19:20:14.783Z,21.60
2018-01-25T19:22:42.244Z,21.59
2018-01-25T19:25:09.666Z,21.55
2018-01-25T19:27:37.044Z,21.51
2018-01-25T19:30:04.680Z,21.49
2018-01-25T19:32:32.170Z,21.48
2018-01-25T19:34:59.680Z,21.50
2018-01-25T19:37:27.058Z,21.48
2018-01-25T19:39:54.515Z,21.48
2018-01-25T19:42:22.195Z,21.44
2018-01-25T19:44:49.587Z,21.40
2018-01-25T19:47:17.184Z,21.41
2018-01-25T19:49:44.862Z,21.39
2018-01-25T19:52:12.267Z,21.39
2018-01-25T19:54:40.674Z,21.37
2018-01-25T19:57:08.081Z,21.37
2018-01-25T19:59:35.511Z,21.38
2018-01-25T20:02:02.949Z,21.35
2018-01-25T20:04:30.385Z,21.31
2018-01-25T20:06:58.036Z,21.26
2018-01-25T20:09:25.425Z,21.25
2018-01-25T20:11:52.854Z,21.20
2018-01-25T20:14:20.283Z,21.17
2018-01-25T20:16:47.898Z,21.10
2018-01-25T20:19:15.382Z,21.00
2018-01-25T20:21:42.914Z,20.96
2018-01-25T20:24:10.342Z,20.88
2018-01-25T20:26:37.847Z,20.89
2018-01-25T20:29:05.337Z,20.83
2018-01-25T20:31:32.762Z,20.78
2018-01-25T20:34:00.253Z,20.77
2018-01-25T20:36:28.319Z,20.68
2018-01-25T20:38:55.836Z,20.69
2018-01-25T20:41:23.274Z,20.68
2018-01-25T20:43:50.659Z,20.63
2018-01-25T20:46:18.123Z,20.62
2018-01-25T20:48:45.987Z,20.58
2018-01-25T20:51:13.450Z,20.56
2018-01-25T20:53:40.851Z,20.52
2018-01-25T20:56:08.254Z,20.51
2018-01-25T20:58:35.823Z,20.43
2018-01-25T21:01:03.310Z,20.47
2018-01-25T21:03:30.949Z,20.39
2018-01-25T21:05:58.374Z,20.35
2018-01-25T21:08:25.842Z,20.33
2018-01-25T21:10:53.235Z,20.35
2018-01-25T21:13:20.789Z,20.31
2018-01-25T21:15:48.210Z,20.27
2018-01-25T21:18:15.667Z,20.24
2018-01-25T21:20:43.214Z,20.25
2018-01-25T21:23:10.578Z,20.24
2018-01-25T21:25:38.143Z,20.18
2018-01-25T21:28:05.545Z,20.19
2018-01-25T21:30:33.007Z,20.15
2018-01-25T21:33:00.637Z,20.14
2018-01-25T21:35:28.022Z,20.16
2018-01-25T21:37:55.412Z,20.14
2018-01-25T21:40:23.984Z,20.10
2018-01-25T21:42:51.346Z,20.07
2018-01-25T21:45:18.845Z,20.04
2018-01-25T21:47:46.484Z,20.02
2018-01-25T21:50:13.919Z,20.03
2018-01-25T21:52:41.340Z,20.03
2018-01-25T21:55:09.502Z,20.00
2018-01-25T21:57:36.877Z,19.98
2018-01-25T22:00:04.446Z,19.96
2018-01-25T22:02:31.830Z,19.91
2018-01-25T22:04:59.251Z,19.93
2018-01-25T22:07:26.891Z,19.89
2018-01-25T22:09:54.435Z,19.89
2018-01-25T22:12:21.853Z,19.88
2018-01-25T22:14:49.221Z,19.87
2018-01-25T22:17:16.870Z,19.84
2018-01-25T22:19:44.410Z,19.68
2018-01-25T22:22:13.170Z,19.81
2018-01-25T22:24:40.613Z,19.73
2018-01-25T22:27:08.069Z,19.78
2018-01-25T22:29:35.524Z,19.77
2018-01-25T22:32:02.906Z,19.81
2018-01-25T22:34:30.326Z,19.75
2018-01-25T22:36:57.768Z,19.74
2018-01-25T22:39:25.184Z,19.70
2018-01-25T22:41:52.600Z,19.70
2018-01-25T22:44:20.026Z,19.62
2018-01-25T22:46:48.189Z,19.69
2018-01-25T22:49:16.842Z,19.66
2018-01-25T22:51:44.210Z,19.66
2018-01-25T22:54:11.630Z,19.61
2018-01-25T22:56:39.040Z,19.64
2018-01-25T22:59:06.478Z,19.56
2018-01-25T23:01:33.858Z,19.60
2018-01-25T23:04:01.296Z,19.57
2018-01-25T23:06:28.884Z,19.52
2018-01-25T23:08:56.397Z,19.56
2018-01-25T23:11:23.862Z,19.54
2018-01-25T23:13:51.272Z,19.54
2018-01-25T23:16:18.968Z,19.46
2018-01-25T23:18:46.379Z,19.50
2018-01-25T23:21:14.038Z,19.49
2018-01-25T23:23:41.665Z,19.47
2018-01-25T23:26:09.080Z,19.36
2018-01-25T23:28:36.635Z,19.45
2018-01-25T23:31:04.046Z,19.44
2018-01-25T23:33:31.646Z,19.44
2018-01-25T23:35:59.137Z,19.43
2018-01-25T23:38:26.519Z,19.40
2018-01-25T23:40:54.034Z,19.44
2018-01-25T23:43:21.410Z,19.39
2018-01-25T23:45:48.861Z,19.35
2018-01-25T23:48:16.307Z,19.36
2018-01-25T23:50:43.750Z,19.35
2018-01-25T23:53:11.180Z,19.36
2018-01-25T23:55:38.571Z,19.31
2018-01-25T23:58:06.062Z,19.26
